Terminal Aerodrome Forecast
Issued by NWS

Home | Current Version | Previous Version | Text Only | Print | Product List | Glossary On
Versions: 1 2 3 4 5 6 7 8 9 10 11 12 13 14 15 16 17 18
000
FTUS45 KBOI 170520
TAFBKE
TAF
KBKE 170520Z 1706/1806 VRB03KT 6SM BR SCT250
     FM171000 VRB03KT 4SM BR BKN250
     FM171500 10012KT P6SM SCT100 OVC250
     FM180300 11015G25KT P6SM FEW070 BKN100=

USA.gov is the U.S. government's official web portal to all federal, state and local government web resources and services.